sensor_id;sensor_type;location;lat;lon;timestamp;P1;durP1;ratioP1;P2;durP2;ratioP2
13386;SDS011;6763;48.524;9.044;2024-03-02T00:01:53;3.93;;;2.97;;
13386;SDS011;6763;48.524;9.044;2024-03-02T00:04:18;4.10;;;3.27;;
13386;SDS011;6763;48.524;9.044;2024-03-02T00:06:43;6.27;;;3.07;;
13386;SDS011;6763;48.524;9.044;2024-03-02T00:09:09;4.17;;;2.97;;
13386;SDS011;6763;48.524;9.044;2024-03-02T00:11:37;6.50;;;3.50;;
13386;SDS011;6763;48.524;9.044;2024-03-02T00:14:02;5.00;;;3.00;;
13386;SDS011;6763;48.524;9.044;2024-03-02T00:16:31;4.20;;;2.77;;
13386;SDS011;6763;48.524;9.044;2024-03-02T00:19:01;4.53;;;3.07;;
13386;SDS011;6763;48.524;9.044;2024-03-02T00:21:27;4.23;;;2.60;;
13386;SDS011;6763;48.524;9.044;2024-03-02T00:23:55;2.93;;;2.23;;
13386;SDS011;6763;48.524;9.044;2024-03-02T00:26:20;6.00;;;3.30;;
13386;SDS011;6763;48.524;9.044;2024-03-02T00:28:45;4.77;;;3.10;;
13386;SDS011;6763;48.524;9.044;2024-03-02T00:31:11;9.23;;;3.17;;
13386;SDS011;6763;48.524;9.044;2024-03-02T00:36:11;4.90;;;3.43;;
13386;SDS011;6763;48.524;9.044;2024-03-02T00:38:47;4.43;;;3.20;;
13386;SDS011;6763;48.524;9.044;2024-03-02T00:41:30;6.30;;;2.93;;
13386;SDS011;6763;48.524;9.044;2024-03-02T00:44:00;9.93;;;3.33;;
13386;SDS011;6763;48.524;9.044;2024-03-02T00:46:32;5.37;;;3.20;;
13386;SDS011;6763;48.524;9.044;2024-03-02T00:49:02;5.17;;;3.10;;
13386;SDS011;6763;48.524;9.044;2024-03-02T00:51:30;5.10;;;3.33;;
13386;SDS011;6763;48.524;9.044;2024-03-02T00:54:00;5.83;;;3.23;;
13386;SDS011;6763;48.524;9.044;2024-03-02T00:56:30;4.23;;;3.13;;
13386;SDS011;6763;48.524;9.044;2024-03-02T00:58:56;4.50;;;3.10;;
13386;SDS011;6763;48.524;9.044;2024-03-02T01:01:21;4.23;;;2.87;;
13386;SDS011;6763;48.524;9.044;2024-03-02T01:03:47;4.33;;;3.20;;
13386;SDS011;6763;48.524;9.044;2024-03-02T01:06:13;5.60;;;3.10;;
13386;SDS011;6763;48.524;9.044;2024-03-02T01:08:39;4.90;;;3.20;;
13386;SDS011;6763;48.524;9.044;2024-03-02T01:11:05;4.83;;;2.70;;
13386;SDS011;6763;48.524;9.044;2024-03-02T01:13:30;5.40;;;3.03;;
13386;SDS011;6763;48.524;9.044;2024-03-02T01:15:56;6.70;;;3.40;;
13386;SDS011;6763;48.524;9.044;2024-03-02T01:18:22;5.80;;;3.33;;
13386;SDS011;6763;48.524;9.044;2024-03-02T01:20:47;5.53;;;3.53;;
13386;SDS011;6763;48.524;9.044;2024-03-02T01:23:13;4.53;;;2.97;;
13386;SDS011;6763;48.524;9.044;2024-03-02T01:25:38;4.30;;;2.70;;
13386;SDS011;6763;48.524;9.044;2024-03-02T01:28:04;3.43;;;2.90;;
13386;SDS011;6763;48.524;9.044;2024-03-02T01:30:30;3.53;;;3.07;;
13386;SDS011;6763;48.524;9.044;2024-03-02T01:32:55;5.93;;;3.30;;
13386;SDS011;6763;48.524;9.044;2024-03-02T01:35:20;5.17;;;3.30;;
13386;SDS011;6763;48.524;9.044;2024-03-02T01:37:45;4.83;;;3.07;;
13386;SDS011;6763;48.524;9.044;2024-03-02T01:40:11;5.37;;;3.37;;
13386;SDS011;6763;48.524;9.044;2024-03-02T01:42:37;4.47;;;2.57;;
13386;SDS011;6763;48.524;9.044;2024-03-02T01:45:04;4.70;;;3.30;;
13386;SDS011;6763;48.524;9.044;2024-03-02T01:47:30;7.33;;;3.70;;
13386;SDS011;6763;48.524;9.044;2024-03-02T01:49:55;5.00;;;3.13;;
13386;SDS011;6763;48.524;9.044;2024-03-02T01:52:21;5.20;;;3.33;;
13386;SDS011;6763;48.524;9.044;2024-03-02T01:54:46;4.33;;;3.27;;
13386;SDS011;6763;48.524;9.044;2024-03-02T01:57:12;3.40;;;2.80;;
13386;SDS011;6763;48.524;9.044;2024-03-02T01:59:37;4.27;;;2.97;;
13386;SDS011;6763;48.524;9.044;2024-03-02T02:02:02;4.33;;;3.07;;
13386;SDS011;6763;48.524;9.044;2024-03-02T02:04:28;3.80;;;2.87;;
13386;SDS011;6763;48.524;9.044;2024-03-02T02:06:53;4.80;;;2.90;;
13386;SDS011;6763;48.524;9.044;2024-03-02T02:09:19;5.60;;;3.17;;
13386;SDS011;6763;48.524;9.044;2024-03-02T02:11:44;5.83;;;3.33;;
13386;SDS011;6763;48.524;9.044;2024-03-02T02:14:09;4.30;;;2.90;;
13386;SDS011;6763;48.524;9.044;2024-03-02T02:16:35;5.60;;;2.87;;
13386;SDS011;6763;48.524;9.044;2024-03-02T02:19:00;5.40;;;2.97;;
13386;SDS011;6763;48.524;9.044;2024-03-02T02:21:26;3.77;;;2.60;;
13386;SDS011;6763;48.524;9.044;2024-03-02T02:23:52;2.83;;;2.40;;
13386;SDS011;6763;48.524;9.044;2024-03-02T02:26:17;8.80;;;3.47;;
13386;SDS011;6763;48.524;9.044;2024-03-02T02:28:43;4.33;;;2.83;;
13386;SDS011;6763;48.524;9.044;2024-03-02T02:31:12;4.13;;;2.80;;
13386;SDS011;6763;48.524;9.044;2024-03-02T02:33:40;6.00;;;3.37;;
13386;SDS011;6763;48.524;9.044;2024-03-02T02:36:05;4.87;;;2.97;;
13386;SDS011;6763;48.524;9.044;2024-03-02T02:38:32;6.00;;;2.93;;
13386;SDS011;6763;48.524;9.044;2024-03-02T02:41:01;4.93;;;2.90;;
13386;SDS011;6763;48.524;9.044;2024-03-02T02:43:27;5.87;;;3.30;;
13386;SDS011;6763;48.524;9.044;2024-03-02T02:48:20;5.73;;;2.83;;
13386;SDS011;6763;48.524;9.044;2024-03-02T02:50:45;4.47;;;3.13;;
13386;SDS011;6763;48.524;9.044;2024-03-02T02:53:11;5.33;;;3.10;;
13386;SDS011;6763;48.524;9.044;2024-03-02T02:55:36;4.63;;;3.17;;
13386;SDS011;6763;48.524;9.044;2024-03-02T02:58:05;4.97;;;3.07;;
13386;SDS011;6763;48.524;9.044;2024-03-02T03:00:33;6.37;;;3.30;;
13386;SDS011;6763;48.524;9.044;2024-03-02T03:02:59;5.77;;;2.93;;
13386;SDS011;6763;48.524;9.044;2024-03-02T03:05:24;5.63;;;3.17;;
13386;SDS011;6763;48.524;9.044;2024-03-02T03:07:49;4.70;;;2.90;;
13386;SDS011;6763;48.524;9.044;2024-03-02T03:10:15;4.03;;;2.83;;
13386;SDS011;6763;48.524;9.044;2024-03-02T03:12:41;4.57;;;2.80;;
13386;SDS011;6763;48.524;9.044;2024-03-02T03:15:08;3.57;;;3.07;;
13386;SDS011;6763;48.524;9.044;2024-03-02T03:17:34;3.90;;;3.27;;
13386;SDS011;6763;48.524;9.044;2024-03-02T03:20:00;7.67;;;3.40;;
13386;SDS011;6763;48.524;9.044;2024-03-02T03:22:26;7.30;;;3.73;;
13386;SDS011;6763;48.524;9.044;2024-03-02T03:24:51;4.97;;;3.03;;
13386;SDS011;6763;48.524;9.044;2024-03-02T03:27:17;4.50;;;3.20;;
13386;SDS011;6763;48.524;9.044;2024-03-02T03:29:42;5.73;;;3.03;;
13386;SDS011;6763;48.524;9.044;2024-03-02T03:32:08;5.53;;;3.23;;
13386;SDS011;6763;48.524;9.044;2024-03-02T03:34:33;5.37;;;3.10;;
13386;SDS011;6763;48.524;9.044;2024-03-02T03:36:59;5.50;;;3.13;;
13386;SDS011;6763;48.524;9.044;2024-03-02T03:39:24;6.17;;;2.97;;
13386;SDS011;6763;48.524;9.044;2024-03-02T03:41:49;4.33;;;2.80;;
13386;SDS011;6763;48.524;9.044;2024-03-02T03:44:15;3.97;;;2.60;;
13386;SDS011;6763;48.524;9.044;2024-03-02T03:46:40;6.63;;;3.20;;
13386;SDS011;6763;48.524;9.044;2024-03-02T03:49:06;4.23;;;3.20;;
13386;SDS011;6763;48.524;9.044;2024-03-02T03:51:32;5.07;;;2.90;;
13386;SDS011;6763;48.524;9.044;2024-03-02T03:53:58;8.13;;;4.37;;
13386;SDS011;6763;48.524;9.044;2024-03-02T03:56:23;4.20;;;2.87;;
13386;SDS011;6763;48.524;9.044;2024-03-02T03:58:48;4.60;;;3.10;;
13386;SDS011;6763;48.524;9.044;2024-03-02T04:01:14;3.53;;;2.40;;
13386;SDS011;6763;48.524;9.044;2024-03-02T04:03:39;4.63;;;2.30;;
13386;SDS011;6763;48.524;9.044;2024-03-02T04:06:04;3.93;;;2.73;;
13386;SDS011;6763;48.524;9.044;2024-03-02T04:08:30;5.23;;;2.43;;
13386;SDS011;6763;48.524;9.044;2024-03-02T04:10:55;4.50;;;2.73;;
13386;SDS011;6763;48.524;9.044;2024-03-02T04:13:20;3.87;;;2.83;;
13386;SDS011;6763;48.524;9.044;2024-03-02T04:15:46;4.57;;;2.63;;
13386;SDS011;6763;48.524;9.044;2024-03-02T04:18:11;4.30;;;2.83;;
13386;SDS011;6763;48.524;9.044;2024-03-02T04:20:36;6.83;;;3.47;;
13386;SDS011;6763;48.524;9.044;2024-03-02T04:23:02;4.03;;;2.83;;
13386;SDS011;6763;48.524;9.044;2024-03-02T04:25:27;5.93;;;2.73;;
13386;SDS011;6763;48.524;9.044;2024-03-02T04:27:53;3.80;;;2.90;;
13386;SDS011;6763;48.524;9.044;2024-03-02T04:30:18;3.73;;;2.47;;
13386;SDS011;6763;48.524;9.044;2024-03-02T04:32:44;4.00;;;2.90;;
13386;SDS011;6763;48.524;9.044;2024-03-02T04:35:11;6.13;;;3.33;;
13386;SDS011;6763;48.524;9.044;2024-03-02T04:37:38;4.03;;;3.10;;
13386;SDS011;6763;48.524;9.044;2024-03-02T04:40:03;5.50;;;3.03;;
13386;SDS011;6763;48.524;9.044;2024-03-02T04:42:33;5.37;;;3.37;;
13386;SDS011;6763;48.524;9.044;2024-03-02T04:44:58;5.30;;;2.97;;
13386;SDS011;6763;48.524;9.044;2024-03-02T04:47:23;6.73;;;2.83;;
13386;SDS011;6763;48.524;9.044;2024-03-02T04:49:48;9.17;;;3.60;;
13386;SDS011;6763;48.524;9.044;2024-03-02T04:52:13;7.60;;;3.13;;
13386;SDS011;6763;48.524;9.044;2024-03-02T04:54:40;7.20;;;3.40;;
13386;SDS011;6763;48.524;9.044;2024-03-02T04:57:24;6.57;;;3.50;;
13386;SDS011;6763;48.524;9.044;2024-03-02T04:59:49;6.93;;;3.67;;
13386;SDS011;6763;48.524;9.044;2024-03-02T05:02:14;5.33;;;3.87;;
13386;SDS011;6763;48.524;9.044;2024-03-02T05:04:40;5.87;;;3.50;;
13386;SDS011;6763;48.524;9.044;2024-03-02T05:07:05;5.07;;;2.73;;
13386;SDS011;6763;48.524;9.044;2024-03-02T05:09:30;5.63;;;3.13;;
13386;SDS011;6763;48.524;9.044;2024-03-02T05:11:56;4.83;;;2.70;;
13386;SDS011;6763;48.524;9.044;2024-03-02T05:14:35;7.17;;;2.83;;
13386;SDS011;6763;48.524;9.044;2024-03-02T05:17:01;4.73;;;2.93;;
13386;SDS011;6763;48.524;9.044;2024-03-02T05:19:26;7.30;;;2.90;;
13386;SDS011;6763;48.524;9.044;2024-03-02T05:21:52;5.07;;;3.20;;
13386;SDS011;6763;48.524;9.044;2024-03-02T05:24:17;3.80;;;2.90;;
13386;SDS011;6763;48.524;9.044;2024-03-02T05:26:42;6.33;;;3.10;;
13386;SDS011;6763;48.524;9.044;2024-03-02T05:29:08;5.23;;;3.47;;
13386;SDS011;6763;48.524;9.044;2024-03-02T05:31:33;5.07;;;2.80;;
13386;SDS011;6763;48.524;9.044;2024-03-02T05:33:59;3.07;;;2.60;;
13386;SDS011;6763;48.524;9.044;2024-03-02T05:36:24;5.13;;;3.33;;
13386;SDS011;6763;48.524;9.044;2024-03-02T05:38:49;5.07;;;3.50;;
13386;SDS011;6763;48.524;9.044;2024-03-02T05:41:15;4.93;;;3.07;;
13386;SDS011;6763;48.524;9.044;2024-03-02T05:43:40;5.13;;;3.10;;
13386;SDS011;6763;48.524;9.044;2024-03-02T05:46:05;8.10;;;3.23;;
13386;SDS011;6763;48.524;9.044;2024-03-02T05:48:30;3.67;;;2.83;;
13386;SDS011;6763;48.524;9.044;2024-03-02T05:50:56;3.73;;;2.60;;
13386;SDS011;6763;48.524;9.044;2024-03-02T05:53:21;6.73;;;3.20;;
13386;SDS011;6763;48.524;9.044;2024-03-02T05:55:46;3.90;;;2.47;;
13386;SDS011;6763;48.524;9.044;2024-03-02T05:58:12;4.43;;;2.93;;
13386;SDS011;6763;48.524;9.044;2024-03-02T06:00:50;5.87;;;3.50;;
13386;SDS011;6763;48.524;9.044;2024-03-02T06:03:16;3.27;;;2.73;;
13386;SDS011;6763;48.524;9.044;2024-03-02T06:05:41;5.43;;;3.10;;
13386;SDS011;6763;48.524;9.044;2024-03-02T06:08:06;4.73;;;3.10;;
13386;SDS011;6763;48.524;9.044;2024-03-02T06:10:32;4.37;;;2.77;;
13386;SDS011;6763;48.524;9.044;2024-03-02T06:12:57;5.63;;;2.97;;
13386;SDS011;6763;48.524;9.044;2024-03-02T06:15:24;4.03;;;2.60;;
13386;SDS011;6763;48.524;9.044;2024-03-02T06:17:49;5.27;;;3.33;;
13386;SDS011;6763;48.524;9.044;2024-03-02T06:20:15;6.70;;;3.53;;
13386;SDS011;6763;48.524;9.044;2024-03-02T06:22:40;6.13;;;3.40;;
13386;SDS011;6763;48.524;9.044;2024-03-02T06:25:05;6.60;;;3.30;;
13386;SDS011;6763;48.524;9.044;2024-03-02T06:27:31;5.00;;;3.33;;
13386;SDS011;6763;48.524;9.044;2024-03-02T06:29:56;4.73;;;3.10;;
13386;SDS011;6763;48.524;9.044;2024-03-02T06:32:21;10.33;;;3.77;;
13386;SDS011;6763;48.524;9.044;2024-03-02T06:34:48;5.27;;;3.53;;
13386;SDS011;6763;48.524;9.044;2024-03-02T06:37:13;6.27;;;3.47;;
13386;SDS011;6763;48.524;9.044;2024-03-02T06:39:38;6.07;;;3.47;;
13386;SDS011;6763;48.524;9.044;2024-03-02T06:42:04;5.70;;;3.57;;
13386;SDS011;6763;48.524;9.044;2024-03-02T06:44:29;5.90;;;3.23;;
13386;SDS011;6763;48.524;9.044;2024-03-02T06:46:54;6.50;;;3.77;;
13386;SDS011;6763;48.524;9.044;2024-03-02T06:49:19;4.53;;;3.40;;
13386;SDS011;6763;48.524;9.044;2024-03-02T06:51:45;5.10;;;3.27;;
13386;SDS011;6763;48.524;9.044;2024-03-02T06:54:10;10.10;;;4.00;;
13386;SDS011;6763;48.524;9.044;2024-03-02T06:56:35;6.03;;;3.77;;
13386;SDS011;6763;48.524;9.044;2024-03-02T06:59:01;7.37;;;4.30;;
13386;SDS011;6763;48.524;9.044;2024-03-02T07:01:26;6.47;;;4.00;;
13386;SDS011;6763;48.524;9.044;2024-03-02T07:03:53;5.83;;;3.80;;
13386;SDS011;6763;48.524;9.044;2024-03-02T07:06:18;7.10;;;4.17;;
13386;SDS011;6763;48.524;9.044;2024-03-02T07:08:43;6.40;;;3.70;;
13386;SDS011;6763;48.524;9.044;2024-03-02T07:11:09;7.57;;;4.03;;
13386;SDS011;6763;48.524;9.044;2024-03-02T07:13:34;6.97;;;3.90;;
13386;SDS011;6763;48.524;9.044;2024-03-02T07:16:00;7.53;;;4.40;;
13386;SDS011;6763;48.524;9.044;2024-03-02T07:18:31;6.60;;;3.73;;
13386;SDS011;6763;48.524;9.044;2024-03-02T07:20:57;8.07;;;4.20;;
13386;SDS011;6763;48.524;9.044;2024-03-02T07:23:29;5.40;;;3.70;;
13386;SDS011;6763;48.524;9.044;2024-03-02T07:25:55;9.83;;;4.87;;
13386;SDS011;6763;48.524;9.044;2024-03-02T07:28:21;7.27;;;4.17;;
13386;SDS011;6763;48.524;9.044;2024-03-02T07:30:47;6.07;;;3.73;;
13386;SDS011;6763;48.524;9.044;2024-03-02T07:33:22;7.10;;;4.10;;
13386;SDS011;6763;48.524;9.044;2024-03-02T07:35:47;7.83;;;4.00;;
13386;SDS011;6763;48.524;9.044;2024-03-02T07:38:13;9.80;;;5.07;;
13386;SDS011;6763;48.524;9.044;2024-03-02T07:40:38;10.20;;;4.90;;
13386;SDS011;6763;48.524;9.044;2024-03-02T07:43:03;7.40;;;4.53;;
13386;SDS011;6763;48.524;9.044;2024-03-02T07:45:29;6.57;;;4.27;;
13386;SDS011;6763;48.524;9.044;2024-03-02T07:47:55;6.37;;;4.23;;
13386;SDS011;6763;48.524;9.044;2024-03-02T07:50:20;7.57;;;4.60;;
13386;SDS011;6763;48.524;9.044;2024-03-02T07:52:45;8.57;;;4.50;;
13386;SDS011;6763;48.524;9.044;2024-03-02T07:55:11;9.37;;;4.93;;
13386;SDS011;6763;48.524;9.044;2024-03-02T07:57:36;6.80;;;4.33;;
13386;SDS011;6763;48.524;9.044;2024-03-02T08:00:01;7.87;;;4.37;;
13386;SDS011;6763;48.524;9.044;2024-03-02T08:02:27;7.23;;;4.60;;
13386;SDS011;6763;48.524;9.044;2024-03-02T08:04:52;7.73;;;4.67;;
13386;SDS011;6763;48.524;9.044;2024-03-02T08:07:18;9.17;;;4.87;;
13386;SDS011;6763;48.524;9.044;2024-03-02T08:09:43;9.53;;;4.43;;
13386;SDS011;6763;48.524;9.044;2024-03-02T08:12:08;8.00;;;4.80;;
13386;SDS011;6763;48.524;9.044;2024-03-02T08:14:33;8.30;;;4.77;;
13386;SDS011;6763;48.524;9.044;2024-03-02T08:16:59;8.93;;;4.63;;
13386;SDS011;6763;48.524;9.044;2024-03-02T08:19:26;8.30;;;3.87;;
13386;SDS011;6763;48.524;9.044;2024-03-02T08:21:51;7.73;;;4.13;;
13386;SDS011;6763;48.524;9.044;2024-03-02T08:24:17;4.63;;;3.87;;
13386;SDS011;6763;48.524;9.044;2024-03-02T08:26:42;7.17;;;3.90;;
13386;SDS011;6763;48.524;9.044;2024-03-02T08:29:07;9.57;;;4.33;;
13386;SDS011;6763;48.524;9.044;2024-03-02T08:31:33;4.73;;;3.23;;
13386;SDS011;6763;48.524;9.044;2024-03-02T08:33:58;4.23;;;3.30;;
13386;SDS011;6763;48.524;9.044;2024-03-02T08:36:23;5.37;;;3.40;;
13386;SDS011;6763;48.524;9.044;2024-03-02T08:38:49;4.87;;;3.10;;
13386;SDS011;6763;48.524;9.044;2024-03-02T08:41:15;5.73;;;3.37;;
13386;SDS011;6763;48.524;9.044;2024-03-02T08:43:41;5.30;;;3.53;;
13386;SDS011;6763;48.524;9.044;2024-03-02T08:46:07;3.73;;;2.87;;
13386;SDS011;6763;48.524;9.044;2024-03-02T08:48:32;5.50;;;3.37;;
13386;SDS011;6763;48.524;9.044;2024-03-02T08:50:58;5.20;;;3.47;;
13386;SDS011;6763;48.524;9.044;2024-03-02T08:53:23;4.60;;;2.90;;
13386;SDS011;6763;48.524;9.044;2024-03-02T08:55:49;4.57;;;3.13;;
13386;SDS011;6763;48.524;9.044;2024-03-02T08:58:14;4.87;;;3.43;;
13386;SDS011;6763;48.524;9.044;2024-03-02T09:00:40;5.23;;;3.33;;
13386;SDS011;6763;48.524;9.044;2024-03-02T09:03:06;5.77;;;3.70;;
13386;SDS011;6763;48.524;9.044;2024-03-02T09:05:32;6.77;;;4.33;;
13386;SDS011;6763;48.524;9.044;2024-03-02T09:07:57;5.93;;;4.13;;
13386;SDS011;6763;48.524;9.044;2024-03-02T09:10:22;6.57;;;4.20;;
13386;SDS011;6763;48.524;9.044;2024-03-02T09:12:48;7.13;;;4.10;;
13386;SDS011;6763;48.524;9.044;2024-03-02T09:15:13;6.23;;;3.83;;
13386;SDS011;6763;48.524;9.044;2024-03-02T09:17:38;7.23;;;4.37;;
13386;SDS011;6763;48.524;9.044;2024-03-02T09:20:04;7.00;;;3.90;;
13386;SDS011;6763;48.524;9.044;2024-03-02T09:22:30;7.50;;;4.03;;
13386;SDS011;6763;48.524;9.044;2024-03-02T09:24:55;7.23;;;4.07;;
13386;SDS011;6763;48.524;9.044;2024-03-02T09:27:21;8.33;;;4.83;;
13386;SDS011;6763;48.524;9.044;2024-03-02T09:29:47;7.70;;;4.07;;
13386;SDS011;6763;48.524;9.044;2024-03-02T09:32:12;5.77;;;3.87;;
13386;SDS011;6763;48.524;9.044;2024-03-02T09:34:39;6.17;;;4.43;;
13386;SDS011;6763;48.524;9.044;2024-03-02T09:37:04;8.07;;;4.53;;
13386;SDS011;6763;48.524;9.044;2024-03-02T09:39:29;7.07;;;4.40;;
13386;SDS011;6763;48.524;9.044;2024-03-02T09:41:55;8.20;;;4.13;;
13386;SDS011;6763;48.524;9.044;2024-03-02T09:44:21;6.47;;;4.03;;
13386;SDS011;6763;48.524;9.044;2024-03-02T09:46:50;6.97;;;4.20;;
13386;SDS011;6763;48.524;9.044;2024-03-02T09:49:17;6.57;;;3.97;;
13386;SDS011;6763;48.524;9.044;2024-03-02T09:51:46;5.70;;;3.90;;
13386;SDS011;6763;48.524;9.044;2024-03-02T09:54:13;4.77;;;3.40;;
13386;SDS011;6763;48.524;9.044;2024-03-02T09:56:40;4.23;;;3.20;;
13386;SDS011;6763;48.524;9.044;2024-03-02T09:59:06;4.57;;;3.10;;
13386;SDS011;6763;48.524;9.044;2024-03-02T10:01:31;4.30;;;3.00;;
13386;SDS011;6763;48.524;9.044;2024-03-02T10:03:58;7.03;;;3.20;;
13386;SDS011;6763;48.524;9.044;2024-03-02T10:06:25;4.97;;;3.13;;
13386;SDS011;6763;48.524;9.044;2024-03-02T10:08:51;4.10;;;3.00;;
13386;SDS011;6763;48.524;9.044;2024-03-02T10:11:51;4.23;;;2.53;;
13386;SDS011;6763;48.524;9.044;2024-03-02T10:14:10;5.10;;;2.13;;
13386;SDS011;6763;48.524;9.044;2024-03-02T10:16:36;2.83;;;1.80;;
13386;SDS011;6763;48.524;9.044;2024-03-02T10:19:15;2.83;;;2.10;;
13386;SDS011;6763;48.524;9.044;2024-03-02T10:21:51;3.00;;;2.27;;
13386;SDS011;6763;48.524;9.044;2024-03-02T10:24:18;4.50;;;1.80;;
13386;SDS011;6763;48.524;9.044;2024-03-02T10:26:44;2.07;;;1.87;;
13386;SDS011;6763;48.524;9.044;2024-03-02T10:29:10;2.73;;;1.70;;
13386;SDS011;6763;48.524;9.044;2024-03-02T10:31:39;4.07;;;1.93;;
13386;SDS011;6763;48.524;9.044;2024-03-02T10:34:07;3.00;;;2.13;;
13386;SDS011;6763;48.524;9.044;2024-03-02T10:36:33;2.37;;;1.50;;
13386;SDS011;6763;48.524;9.044;2024-03-02T10:39:05;2.20;;;1.97;;
13386;SDS011;6763;48.524;9.044;2024-03-02T10:41:35;3.77;;;2.13;;
13386;SDS011;6763;48.524;9.044;2024-03-02T10:44:05;2.30;;;1.67;;
13386;SDS011;6763;48.524;9.044;2024-03-02T10:46:32;2.13;;;1.83;;
13386;SDS011;6763;48.524;9.044;2024-03-02T10:48:59;3.37;;;2.00;;
13386;SDS011;6763;48.524;9.044;2024-03-02T10:51:27;1.97;;;1.77;;
13386;SDS011;6763;48.524;9.044;2024-03-02T10:53:56;1.97;;;1.77;;
13386;SDS011;6763;48.524;9.044;2024-03-02T10:56:29;2.77;;;1.90;;
13386;SDS011;6763;48.524;9.044;2024-03-02T10:59:02;2.63;;;1.80;;
13386;SDS011;6763;48.524;9.044;2024-03-02T11:01:41;2.00;;;1.60;;
13386;SDS011;6763;48.524;9.044;2024-03-02T11:04:08;1.53;;;1.30;;
13386;SDS011;6763;48.524;9.044;2024-03-02T11:06:34;2.43;;;1.70;;
13386;SDS011;6763;48.524;9.044;2024-03-02T11:09:05;1.77;;;1.30;;
13386;SDS011;6763;48.524;9.044;2024-03-02T11:11:34;2.03;;;1.23;;
13386;SDS011;6763;48.524;9.044;2024-03-02T11:14:02;1.40;;;1.30;;
13386;SDS011;6763;48.524;9.044;2024-03-02T11:16:36;1.98;;;1.30;;
13386;SDS011;6763;48.524;9.044;2024-03-02T11:19:08;2.80;;;1.30;;
13386;SDS011;6763;48.524;9.044;2024-03-02T11:21:36;1.75;;;1.40;;
13386;SDS011;6763;48.524;9.044;2024-03-02T11:26:46;1.60;;;1.50;;
13386;SDS011;6763;48.524;9.044;2024-03-02T11:32:04;1.30;;;1.20;;
13386;SDS011;6763;48.524;9.044;2024-03-02T11:34:39;1.10;;;1.00;;
13386;SDS011;6763;48.524;9.044;2024-03-02T11:37:10;1.80;;;1.35;;
13386;SDS011;6763;48.524;9.044;2024-03-02T11:39:35;1.65;;;1.10;;
13386;SDS011;6763;48.524;9.044;2024-03-02T11:42:01;1.17;;;1.00;;
13386;SDS011;6763;48.524;9.044;2024-03-02T11:44:27;1.88;;;1.30;;
13386;SDS011;6763;48.524;9.044;2024-03-02T11:46:59;1.33;;;1.02;;
13386;SDS011;6763;48.524;9.044;2024-03-02T11:49:59;1.20;;;1.00;;
13386;SDS011;6763;48.524;9.044;2024-03-02T11:52:17;1.05;;;1.02;;
13386;SDS011;6763;48.524;9.044;2024-03-02T11:54:44;1.20;;;1.00;;
13386;SDS011;6763;48.524;9.044;2024-03-02T11:57:20;1.25;;;0.90;;
13386;SDS011;6763;48.524;9.044;2024-03-02T11:59:50;1.08;;;0.98;;
13386;SDS011;6763;48.524;9.044;2024-03-02T12:02:16;1.45;;;1.33;;
13386;SDS011;6763;48.524;9.044;2024-03-02T12:04:43;1.08;;;0.98;;
13386;SDS011;6763;48.524;9.044;2024-03-02T12:07:10;1.25;;;1.00;;
13386;SDS011;6763;48.524;9.044;2024-03-02T12:09:36;1.08;;;0.90;;
13386;SDS011;6763;48.524;9.044;2024-03-02T12:12:02;1.00;;;0.90;;
13386;SDS011;6763;48.524;9.044;2024-03-02T12:14:29;1.00;;;0.90;;
13386;SDS011;6763;48.524;9.044;2024-03-02T12:16:55;0.68;;;0.68;;
13386;SDS011;6763;48.524;9.044;2024-03-02T12:19:20;0.63;;;0.63;;
13386;SDS011;6763;48.524;9.044;2024-03-02T12:21:46;0.82;;;0.80;;
13386;SDS011;6763;48.524;9.044;2024-03-02T12:24:11;0.70;;;0.70;;
13386;SDS011;6763;48.524;9.044;2024-03-02T12:26:36;1.40;;;0.90;;
13386;SDS011;6763;48.524;9.044;2024-03-02T12:29:02;0.93;;;0.80;;
13386;SDS011;6763;48.524;9.044;2024-03-02T12:31:27;0.80;;;0.80;;
13386;SDS011;6763;48.524;9.044;2024-03-02T12:33:52;1.13;;;0.85;;
13386;SDS011;6763;48.524;9.044;2024-03-02T12:36:19;0.95;;;0.90;;
13386;SDS011;6763;48.524;9.044;2024-03-02T12:38:44;0.95;;;0.90;;
13386;SDS011;6763;48.524;9.044;2024-03-02T12:41:11;1.10;;;0.90;;
13386;SDS011;6763;48.524;9.044;2024-03-02T12:43:40;0.65;;;0.60;;
13386;SDS011;6763;48.524;9.044;2024-03-02T12:46:05;1.02;;;0.80;;
13386;SDS011;6763;48.524;9.044;2024-03-02T12:48:31;1.98;;;0.98;;
13386;SDS011;6763;48.524;9.044;2024-03-02T12:50:56;0.80;;;0.80;;
13386;SDS011;6763;48.524;9.044;2024-03-02T12:53:21;1.08;;;0.90;;
13386;SDS011;6763;48.524;9.044;2024-03-02T12:55:47;0.85;;;0.70;;
13386;SDS011;6763;48.524;9.044;2024-03-02T12:58:19;0.73;;;0.73;;
13386;SDS011;6763;48.524;9.044;2024-03-02T13:00:48;1.00;;;0.90;;
13386;SDS011;6763;48.524;9.044;2024-03-02T13:03:14;1.00;;;0.82;;
13386;SDS011;6763;48.524;9.044;2024-03-02T13:05:40;0.60;;;0.60;;
13386;SDS011;6763;48.524;9.044;2024-03-02T13:08:06;1.70;;;0.80;;
13386;SDS011;6763;48.524;9.044;2024-03-02T13:10:32;1.02;;;0.90;;
13386;SDS011;6763;48.524;9.044;2024-03-02T13:12:58;0.93;;;0.90;;
13386;SDS011;6763;48.524;9.044;2024-03-02T13:15:23;1.15;;;1.00;;
13386;SDS011;6763;48.524;9.044;2024-03-02T13:17:48;1.10;;;0.85;;
13386;SDS011;6763;48.524;9.044;2024-03-02T13:20:15;0.80;;;0.80;;
13386;SDS011;6763;48.524;9.044;2024-03-02T13:22:43;1.30;;;1.03;;
13386;SDS011;6763;48.524;9.044;2024-03-02T13:25:08;0.70;;;0.70;;
13386;SDS011;6763;48.524;9.044;2024-03-02T13:27:35;0.90;;;0.90;;
13386;SDS011;6763;48.524;9.044;2024-03-02T13:30:01;1.10;;;1.00;;
13386;SDS011;6763;48.524;9.044;2024-03-02T13:32:27;1.27;;;0.80;;
13386;SDS011;6763;48.524;9.044;2024-03-02T13:34:53;1.03;;;0.90;;
13386;SDS011;6763;48.524;9.044;2024-03-02T13:37:19;1.13;;;0.80;;
13386;SDS011;6763;48.524;9.044;2024-03-02T13:39:46;0.70;;;0.70;;
13386;SDS011;6763;48.524;9.044;2024-03-02T13:42:11;1.10;;;0.90;;
13386;SDS011;6763;48.524;9.044;2024-03-02T13:44:39;0.90;;;0.80;;
13386;SDS011;6763;48.524;9.044;2024-03-02T13:47:04;1.17;;;0.90;;
13386;SDS011;6763;48.524;9.044;2024-03-02T13:49:30;0.80;;;0.80;;
13386;SDS011;6763;48.524;9.044;2024-03-02T13:52:00;0.80;;;0.80;;
13386;SDS011;6763;48.524;9.044;2024-03-02T13:54:36;1.07;;;0.87;;
13386;SDS011;6763;48.524;9.044;2024-03-02T13:57:02;0.70;;;0.70;;
13386;SDS011;6763;48.524;9.044;2024-03-02T13:59:27;0.73;;;0.70;;
13386;SDS011;6763;48.524;9.044;2024-03-02T14:01:53;1.07;;;0.90;;
13386;SDS011;6763;48.524;9.044;2024-03-02T14:04:18;0.82;;;0.70;;
13386;SDS011;6763;48.524;9.044;2024-03-02T14:06:43;1.95;;;0.80;;
13386;SDS011;6763;48.524;9.044;2024-03-02T14:09:09;1.00;;;0.80;;
13386;SDS011;6763;48.524;9.044;2024-03-02T14:11:34;0.73;;;0.73;;
13386;SDS011;6763;48.524;9.044;2024-03-02T14:14:00;0.80;;;0.70;;
13386;SDS011;6763;48.524;9.044;2024-03-02T14:16:26;0.70;;;0.70;;
13386;SDS011;6763;48.524;9.044;2024-03-02T14:18:52;0.68;;;0.68;;
13386;SDS011;6763;48.524;9.044;2024-03-02T14:21:17;0.93;;;0.70;;
13386;SDS011;6763;48.524;9.044;2024-03-02T14:23:42;0.70;;;0.70;;
13386;SDS011;6763;48.524;9.044;2024-03-02T14:26:07;1.50;;;0.80;;
13386;SDS011;6763;48.524;9.044;2024-03-02T14:28:33;1.17;;;0.90;;
13386;SDS011;6763;48.524;9.044;2024-03-02T14:30:59;0.70;;;0.70;;
13386;SDS011;6763;48.524;9.044;2024-03-02T14:33:25;1.48;;;0.80;;
13386;SDS011;6763;48.524;9.044;2024-03-02T14:35:51;0.77;;;0.73;;
13386;SDS011;6763;48.524;9.044;2024-03-02T14:38:16;0.93;;;0.80;;
13386;SDS011;6763;48.524;9.044;2024-03-02T14:40:42;0.70;;;0.70;;
13386;SDS011;6763;48.524;9.044;2024-03-02T14:43:08;0.80;;;0.80;;
13386;SDS011;6763;48.524;9.044;2024-03-02T14:45:33;0.82;;;0.80;;
13386;SDS011;6763;48.524;9.044;2024-03-02T14:47:58;0.70;;;0.70;;
13386;SDS011;6763;48.524;9.044;2024-03-02T14:50:25;0.70;;;0.70;;
13386;SDS011;6763;48.524;9.044;2024-03-02T14:52:51;0.70;;;0.70;;
13386;SDS011;6763;48.524;9.044;2024-03-02T14:55:17;1.00;;;0.70;;
13386;SDS011;6763;48.524;9.044;2024-03-02T14:57:42;0.70;;;0.60;;
13386;SDS011;6763;48.524;9.044;2024-03-02T15:00:08;0.60;;;0.60;;
13386;SDS011;6763;48.524;9.044;2024-03-02T15:02:36;1.17;;;0.90;;
13386;SDS011;6763;48.524;9.044;2024-03-02T15:05:01;1.00;;;0.90;;
13386;SDS011;6763;48.524;9.044;2024-03-02T15:07:28;0.83;;;0.80;;